createdAt,value
2022-12-17T00:01:52.430Z,-2.40
2022-12-17T00:04:38.001Z,-2.40
2022-12-17T00:07:23.067Z,-2.50
2022-12-17T00:10:08.263Z,-2.60
2022-12-17T00:12:53.284Z,-2.60
2022-12-17T00:15:42.062Z,-2.60
2022-12-17T00:18:27.409Z,-2.60
2022-12-17T00:21:16.568Z,-2.60
2022-12-17T00:24:01.442Z,-2.60
2022-12-17T00:26:46.533Z,-2.50
2022-12-17T00:29:31.664Z,-2.60
2022-12-17T00:32:16.996Z,-2.60
2022-12-17T00:35:02.594Z,-2.70
2022-12-17T00:37:47.500Z,-2.70
2022-12-17T00:40:32.642Z,-2.50
2022-12-17T00:43:21.315Z,-2.60
2022-12-17T00:46:07.088Z,-2.50
2022-12-17T00:48:52.145Z,-2.50
2022-12-17T00:51:37.305Z,-2.50
2022-12-17T00:54:22.908Z,-2.50
2022-12-17T00:57:08.181Z,-2.50
2022-12-17T00:59:53.328Z,-2.50
2022-12-17T01:02:38.628Z,-2.50
2022-12-17T01:05:24.228Z,-2.50
2022-12-17T01:08:09.322Z,-2.50
2022-12-17T01:10:55.104Z,-2.60
2022-12-17T01:13:41.930Z,-2.50
2022-12-17T01:16:28.572Z,-2.40
2022-12-17T01:19:14.276Z,-2.40
2022-12-17T01:21:59.514Z,-2.50
2022-12-17T01:24:44.590Z,-2.50
2022-12-17T01:27:30.305Z,-2.60
2022-12-17T01:30:15.615Z,-2.50
2022-12-17T01:33:00.572Z,-2.60
2022-12-17T01:35:46.175Z,-2.60
2022-12-17T01:38:32.290Z,-2.70
2022-12-17T01:41:17.497Z,-2.80
2022-12-17T01:44:02.602Z,-2.90
2022-12-17T01:46:48.685Z,-2.80
2022-12-17T01:49:33.756Z,-2.80
2022-12-17T01:52:19.424Z,-2.80
2022-12-17T01:55:04.683Z,-2.80
2022-12-17T01:57:49.863Z,-2.90
2022-12-17T02:00:35.741Z,-3.00
2022-12-17T02:03:20.821Z,-3.10
2022-12-17T02:06:13.563Z,-3.10
2022-12-17T02:09:17.496Z,-3.10
2022-12-17T02:12:05.756Z,-3.10
2022-12-17T02:14:54.470Z,-3.20
2022-12-17T02:17:43.418Z,-3.20
2022-12-17T02:20:37.627Z,-3.10
2022-12-17T02:23:31.742Z,-3.30
2022-12-17T02:26:27.435Z,-3.30
2022-12-17T02:29:13.066Z,-3.40
2022-12-17T02:31:59.408Z,-3.50
2022-12-17T02:34:45.005Z,-3.50
2022-12-17T02:37:30.159Z,-3.50
2022-12-17T02:40:15.356Z,-3.60
2022-12-17T02:43:01.040Z,-3.20
2022-12-17T02:45:46.575Z,-3.70
2022-12-17T02:48:31.750Z,-3.70
2022-12-17T02:51:17.241Z,-3.80
2022-12-17T02:54:02.804Z,-3.70
2022-12-17T02:56:47.895Z,-3.70
2022-12-17T02:59:32.932Z,-3.80
2022-12-17T03:02:31.969Z,-3.80
2022-12-17T03:05:43.560Z,-4.00
2022-12-17T03:08:22.485Z,-4.00
2022-12-17T03:11:08.170Z,-4.00
2022-12-17T03:13:53.246Z,-4.10
2022-12-17T03:16:38.850Z,-4.10
2022-12-17T03:19:23.949Z,-4.10
2022-12-17T03:22:09.031Z,-4.20
2022-12-17T03:24:54.333Z,-4.20
2022-12-17T03:27:39.402Z,-4.20
2022-12-17T03:30:25.079Z,-4.20
2022-12-17T03:33:10.415Z,-4.30
2022-12-17T03:35:55.537Z,-4.20
2022-12-17T03:38:40.594Z,-4.40
2022-12-17T03:41:25.822Z,-4.40
2022-12-17T03:44:10.894Z,-4.40
2022-12-17T03:46:55.962Z,-4.50
2022-12-17T03:49:41.158Z,-4.60
2022-12-17T03:52:26.379Z,-4.70
2022-12-17T03:55:11.560Z,-4.80
2022-12-17T03:57:56.647Z,-4.80
2022-12-17T04:00:42.200Z,-4.80
2022-12-17T04:03:27.392Z,-4.80
2022-12-17T04:06:12.815Z,-4.80
2022-12-17T04:08:58.145Z,-4.90
2022-12-17T04:11:43.274Z,-4.80
2022-12-17T04:14:28.428Z,-4.90
2022-12-17T04:17:13.463Z,-4.90
2022-12-17T04:19:58.716Z,-5.00
2022-12-17T04:22:43.814Z,-5.00
2022-12-17T04:25:28.879Z,-5.10
2022-12-17T04:28:13.961Z,-5.10
2022-12-17T04:30:59.171Z,-5.20
2022-12-17T04:33:44.268Z,-5.20
2022-12-17T04:36:29.372Z,-5.40
2022-12-17T04:39:14.543Z,-5.40
2022-12-17T04:41:59.785Z,-5.40
2022-12-17T04:44:44.796Z,-5.50
2022-12-17T04:47:29.892Z,-5.50
2022-12-17T04:50:14.829Z,-5.50
2022-12-17T04:52:59.906Z,-5.60
2022-12-17T04:55:44.885Z,-5.60
2022-12-17T04:58:29.974Z,-5.60
2022-12-17T05:01:15.545Z,-5.70
2022-12-17T05:04:00.974Z,-5.60
2022-12-17T05:06:46.652Z,-5.70
2022-12-17T05:09:31.826Z,-5.70
2022-12-17T05:12:17.068Z,-5.70
2022-12-17T05:15:02.061Z,-5.70
2022-12-17T05:17:47.409Z,-5.80
2022-12-17T05:20:32.698Z,-5.80
2022-12-17T05:23:27.393Z,-5.90
2022-12-17T05:26:35.339Z,-5.90
2022-12-17T05:29:20.360Z,-5.90
2022-12-17T05:32:05.778Z,-6.00
2022-12-17T05:34:50.804Z,-6.00
2022-12-17T05:37:35.926Z,-6.00
2022-12-17T05:40:21.195Z,-6.00
2022-12-17T05:43:20.160Z,-6.10
2022-12-17T05:46:05.313Z,-6.10
2022-12-17T05:48:51.347Z,-6.10
2022-12-17T05:51:38.842Z,-6.10
2022-12-17T05:54:24.579Z,-6.20
2022-12-17T05:57:09.719Z,-6.30
2022-12-17T05:59:54.943Z,-6.20
2022-12-17T06:02:40.262Z,-6.10
2022-12-17T06:05:25.857Z,-6.30
2022-12-17T06:08:11.047Z,-6.30
2022-12-17T06:10:56.085Z,-6.40
2022-12-17T06:13:41.263Z,-6.30
2022-12-17T06:16:26.246Z,-6.40
2022-12-17T06:19:11.446Z,-6.50
2022-12-17T06:21:56.440Z,-6.50
2022-12-17T06:24:45.881Z,-6.50
2022-12-17T06:27:31.686Z,-6.50
2022-12-17T06:30:18.990Z,-6.50
2022-12-17T06:33:04.571Z,-6.50
2022-12-17T06:35:49.776Z,-6.50
2022-12-17T06:38:34.856Z,-6.50
2022-12-17T06:41:20.441Z,-6.60
2022-12-17T06:44:05.509Z,-6.60
2022-12-17T06:46:50.732Z,-6.70
2022-12-17T06:49:36.260Z,-6.70
2022-12-17T06:52:21.444Z,-6.50
2022-12-17T06:55:06.570Z,-6.80
2022-12-17T06:57:51.678Z,-6.80
2022-12-17T07:00:36.995Z,-6.80
2022-12-17T07:03:22.570Z,-6.90
2022-12-17T07:06:07.706Z,-6.80
2022-12-17T07:08:52.959Z,-6.90
2022-12-17T07:11:39.453Z,-6.80
2022-12-17T07:14:24.938Z,-6.90
2022-12-17T07:17:10.087Z,-6.90
2022-12-17T07:19:55.203Z,-6.90
2022-12-17T07:22:44.783Z,-7.00
2022-12-17T07:25:29.944Z,-7.00
2022-12-17T07:28:15.112Z,-7.00
2022-12-17T07:31:00.417Z,-7.00
2022-12-17T07:33:45.495Z,-6.90
2022-12-17T07:36:30.765Z,-6.90
2022-12-17T07:39:15.936Z,-6.80
2022-12-17T07:42:01.135Z,-6.80
2022-12-17T07:44:46.042Z,-6.80
2022-12-17T07:47:31.212Z,-6.80
2022-12-17T07:50:16.517Z,-6.50
2022-12-17T07:53:01.554Z,-6.70
2022-12-17T07:55:46.590Z,-6.70
2022-12-17T07:58:31.635Z,-6.70
2022-12-17T08:01:20.267Z,-6.70
2022-12-17T08:04:05.816Z,-6.60
2022-12-17T08:06:55.139Z,-6.60
2022-12-17T08:09:43.813Z,-6.50
2022-12-17T08:12:28.938Z,-6.50
2022-12-17T08:15:13.996Z,-6.40
2022-12-17T08:17:59.372Z,-6.30
2022-12-17T08:20:44.690Z,-6.30
2022-12-17T08:23:29.834Z,-6.30
2022-12-17T08:26:15.223Z,-6.20
2022-12-17T08:29:00.308Z,-6.20
2022-12-17T08:31:45.635Z,-6.10
2022-12-17T08:34:30.823Z,-6.10
2022-12-17T08:37:16.029Z,-6.00
2022-12-17T08:40:01.294Z,-5.90
2022-12-17T08:42:46.720Z,-5.90
2022-12-17T08:45:31.875Z,-5.90
2022-12-17T08:48:26.873Z,-5.80
2022-12-17T08:51:12.608Z,-5.70
2022-12-17T08:53:57.689Z,-5.70
2022-12-17T08:56:43.393Z,-5.60
2022-12-17T08:59:33.139Z,-5.50
2022-12-17T09:02:18.393Z,-5.40
2022-12-17T09:05:03.900Z,-5.30
2022-12-17T09:07:48.764Z,-5.30
2022-12-17T09:10:34.023Z,-5.20
2022-12-17T09:13:22.217Z,-5.10
2022-12-17T09:16:14.169Z,-5.00
2022-12-17T09:18:59.960Z,-5.00
2022-12-17T09:21:48.628Z,-4.90
2022-12-17T09:24:33.972Z,-4.90
2022-12-17T09:27:19.481Z,-4.80
2022-12-17T09:30:04.636Z,-4.90
2022-12-17T09:32:50.040Z,-4.90
2022-12-17T09:35:35.133Z,-4.90
2022-12-17T09:38:20.294Z,-4.80
2022-12-17T09:41:07.378Z,-4.90
2022-12-17T09:43:52.471Z,-4.80
2022-12-17T09:46:40.816Z,-4.70
2022-12-17T09:49:34.930Z,-4.70
2022-12-17T09:52:21.926Z,-4.70
2022-12-17T09:55:08.681Z,-4.60
2022-12-17T09:57:54.920Z,-4.50
2022-12-17T10:00:41.804Z,-4.50
2022-12-17T10:03:35.481Z,-4.50
2022-12-17T10:06:25.129Z,-4.50
2022-12-17T10:09:12.716Z,-4.40
2022-12-17T10:11:57.862Z,-4.40
2022-12-17T10:14:43.842Z,-4.20
2022-12-17T10:17:33.451Z,-4.20
2022-12-17T10:20:19.711Z,-4.10
2022-12-17T10:23:06.839Z,-3.90
2022-12-17T10:25:52.385Z,-3.80
2022-12-17T10:28:41.621Z,-3.80
2022-12-17T10:31:28.641Z,-3.70
2022-12-17T10:34:15.264Z,-3.50
2022-12-17T10:37:04.350Z,-3.40
2022-12-17T10:39:50.141Z,-3.30
2022-12-17T10:42:41.370Z,-3.30
2022-12-17T10:45:38.780Z,-3.20
2022-12-17T10:48:24.611Z,-3.10
2022-12-17T10:51:09.707Z,-3.00
2022-12-17T10:53:55.570Z,-3.00
2022-12-17T10:56:43.489Z,-3.10
2022-12-17T10:59:31.957Z,-3.00
2022-12-17T11:02:18.136Z,-2.80
2022-12-17T11:05:12.806Z,-2.80
2022-12-17T11:08:01.618Z,-2.60
2022-12-17T11:10:49.026Z,-2.90
2022-12-17T11:13:40.808Z,-2.40
2022-12-17T11:16:33.138Z,-2.30
2022-12-17T11:19:27.661Z,-0.70
2022-12-17T11:22:14.843Z,0.10
2022-12-17T11:25:04.948Z,-0.60
2022-12-17T11:28:00.728Z,-1.00
2022-12-17T11:30:45.967Z,-1.30
2022-12-17T11:33:43.442Z,-1.40
2022-12-17T11:36:35.167Z,-1.50
2022-12-17T11:39:22.205Z,-1.50
2022-12-17T11:42:16.517Z,-1.60
2022-12-17T11:45:07.690Z,-1.50
2022-12-17T11:47:59.828Z,-1.50
2022-12-17T11:51:03.049Z,-1.40
2022-12-17T11:53:54.353Z,-1.40
2022-12-17T11:56:45.025Z,-1.30
2022-12-17T11:59:30.206Z,-1.30
2022-12-17T12:02:22.717Z,-1.20
2022-12-17T12:05:24.386Z,-1.20
2022-12-17T12:08:28.666Z,-1.20
2022-12-17T12:11:26.959Z,-1.00
2022-12-17T12:14:42.838Z,-0.90
2022-12-17T12:17:48.231Z,-0.80
2022-12-17T12:20:36.394Z,-0.70
2022-12-17T12:23:30.242Z,-0.60
2022-12-17T12:26:29.032Z,-0.60
2022-12-17T12:29:33.179Z,-0.60
2022-12-17T12:32:25.650Z,-0.40
2022-12-17T12:35:11.806Z,-0.30
2022-12-17T12:37:57.853Z,-0.20
2022-12-17T12:40:51.034Z,0.00
2022-12-17T12:43:46.354Z,0.20
2022-12-17T12:46:35.474Z,0.20
2022-12-17T12:49:32.470Z,0.20
2022-12-17T12:52:19.377Z,0.40
2022-12-17T12:55:04.598Z,0.60
2022-12-17T12:57:49.811Z,0.80
2022-12-17T13:00:47.475Z,0.90
2022-12-17T13:03:47.101Z,0.80
2022-12-17T13:06:14.985Z,1.00
2022-12-17T13:08:41.606Z,1.20
2022-12-17T13:11:25.561Z,1.10
2022-12-17T13:13:56.066Z,1.30
2022-12-17T13:16:30.276Z,1.30
2022-12-17T13:19:15.818Z,1.30
2022-12-17T13:21:42.361Z,1.40
2022-12-17T13:24:12.344Z,1.50
2022-12-17T13:26:38.922Z,1.30
2022-12-17T13:29:27.584Z,1.40
2022-12-17T13:31:54.208Z,1.50
2022-12-17T13:34:26.998Z,1.40
2022-12-17T13:36:53.580Z,1.50
2022-12-17T13:39:30.909Z,1.40
2022-12-17T13:41:57.489Z,1.20
2022-12-17T13:44:25.488Z,1.40
2022-12-17T13:46:53.600Z,1.40
2022-12-17T13:49:24.867Z,1.40
2022-12-17T13:52:05.187Z,1.40
2022-12-17T13:54:34.651Z,1.40
2022-12-17T13:57:08.377Z,1.20
2022-12-17T13:59:34.957Z,1.20
2022-12-17T14:02:01.626Z,1.30
2022-12-17T14:04:29.316Z,1.20
2022-12-17T14:06:58.102Z,1.20
2022-12-17T14:09:30.654Z,1.00
2022-12-17T14:12:15.871Z,0.90
2022-12-17T14:14:47.088Z,1.00
2022-12-17T14:17:21.034Z,0.90
2022-12-17T14:19:51.119Z,0.70
2022-12-17T14:22:26.771Z,0.60
2022-12-17T14:24:53.432Z,0.50
2022-12-17T14:27:25.905Z,0.40
2022-12-17T14:29:52.528Z,0.20
2022-12-17T14:32:30.217Z,0.20
2022-12-17T14:35:00.583Z,0.20
2022-12-17T14:37:28.430Z,0.00
2022-12-17T14:40:05.179Z,-0.10
2022-12-17T14:42:34.898Z,-0.20
2022-12-17T14:45:01.394Z,-0.20
2022-12-17T14:47:32.167Z,-0.20
2022-12-17T14:49:58.690Z,-0.30
2022-12-17T14:52:28.305Z,-0.30
2022-12-17T14:54:55.086Z,-0.40
2022-12-17T14:57:22.294Z,-0.40
2022-12-17T14:59:49.186Z,-0.50
2022-12-17T15:02:28.637Z,-0.70
2022-12-17T15:04:57.661Z,-0.70
2022-12-17T15:07:28.945Z,-0.60
2022-12-17T15:09:55.918Z,-0.90
2022-12-17T15:12:23.828Z,-1.00
2022-12-17T15:14:50.467Z,-1.10
2022-12-17T15:17:17.439Z,-1.10
2022-12-17T15:19:44.088Z,-1.20
2022-12-17T15:22:17.438Z,-1.30
2022-12-17T15:24:44.766Z,-1.40
2022-12-17T15:27:16.145Z,-1.40
2022-12-17T15:29:43.032Z,-1.60
2022-12-17T15:32:22.974Z,2.60
2022-12-17T15:34:50.499Z,1.10
2022-12-17T15:37:21.101Z,0.10
2022-12-17T15:39:51.133Z,-0.50
2022-12-17T15:42:36.480Z,-0.50
2022-12-17T15:45:03.106Z,-1.50
2022-12-17T15:47:29.681Z,-1.50
2022-12-17T15:49:56.287Z,-2.00
2022-12-17T15:52:24.296Z,-2.10
2022-12-17T15:54:50.999Z,-2.30
2022-12-17T15:57:18.818Z,-2.20
2022-12-17T15:59:45.619Z,-2.40
2022-12-17T16:02:12.770Z,-2.50
2022-12-17T16:04:39.448Z,-2.70
2022-12-17T16:07:06.068Z,-2.70
2022-12-17T16:09:32.627Z,-2.60
2022-12-17T16:11:59.196Z,-2.70
2022-12-17T16:14:25.983Z,-2.90
2022-12-17T16:16:52.544Z,-3.00
2022-12-17T16:19:19.113Z,-3.00
2022-12-17T16:21:47.165Z,-3.10
2022-12-17T16:24:13.927Z,-3.10
2022-12-17T16:26:40.513Z,-3.10
2022-12-17T16:29:07.059Z,-3.20
2022-12-17T16:31:33.759Z,-3.30
2022-12-17T16:34:00.329Z,-3.20
2022-12-17T16:36:26.936Z,-3.40
2022-12-17T16:38:53.898Z,-3.50
2022-12-17T16:41:21.260Z,-3.40
2022-12-17T16:43:48.378Z,-3.40
2022-12-17T16:46:32.572Z,-3.40
2022-12-17T16:49:00.249Z,-3.50
2022-12-17T16:51:29.170Z,-3.70
2022-12-17T16:53:56.589Z,-3.70
2022-12-17T16:56:24.640Z,-3.70
2022-12-17T16:58:52.445Z,-3.70
2022-12-17T17:01:23.581Z,-3.80
2022-12-17T17:03:50.513Z,-3.90
2022-12-17T17:06:17.707Z,-3.90
2022-12-17T17:08:44.282Z,-4.00
2022-12-17T17:11:10.848Z,-4.00
2022-12-17T17:13:37.593Z,-4.00
2022-12-17T17:16:04.725Z,-4.20
2022-12-17T17:18:31.705Z,-4.30
2022-12-17T17:21:17.084Z,-4.30
2022-12-17T17:23:43.671Z,-4.30
2022-12-17T17:26:10.507Z,-4.20
2022-12-17T17:28:37.861Z,-4.20
2022-12-17T17:31:05.662Z,-4.20
2022-12-17T17:33:33.127Z,-4.30
2022-12-17T17:36:10.337Z,-4.30
2022-12-17T17:38:38.004Z,-4.20
2022-12-17T17:41:05.995Z,-4.30
2022-12-17T17:43:32.654Z,-4.30
2022-12-17T17:46:09.732Z,-4.40
2022-12-17T17:48:37.198Z,-4.50
2022-12-17T17:51:05.678Z,-4.70
2022-12-17T17:53:32.198Z,-4.70
2022-12-17T17:56:03.493Z,-4.70
2022-12-17T17:58:30.121Z,-4.60
2022-12-17T18:00:56.651Z,-4.60
2022-12-17T18:03:23.213Z,-4.70
2022-12-17T18:05:49.855Z,-4.70
2022-12-17T18:08:16.348Z,-4.70
2022-12-17T18:10:43.574Z,-4.90
2022-12-17T18:13:29.014Z,-4.90
2022-12-17T18:16:00.020Z,-4.90
2022-12-17T18:18:26.606Z,-4.90
2022-12-17T18:21:01.894Z,-4.80
2022-12-17T18:23:28.424Z,-4.90
2022-12-17T18:25:54.966Z,-4.90
2022-12-17T18:28:21.497Z,-5.00
2022-12-17T18:30:48.032Z,-4.70
2022-12-17T18:33:14.543Z,-5.20
2022-12-17T18:35:41.057Z,-5.30
2022-12-17T18:38:07.804Z,-5.30
2022-12-17T18:40:35.161Z,-5.30
2022-12-17T18:43:20.494Z,-4.50
2022-12-17T18:45:47.077Z,-4.70
2022-12-17T18:48:13.637Z,-4.90
2022-12-17T18:50:40.144Z,-4.90
2022-12-17T18:53:06.664Z,-5.00
2022-12-17T18:55:33.218Z,-5.10
2022-12-17T18:58:01.740Z,-5.30
2022-12-17T19:00:28.306Z,-5.30
2022-12-17T19:02:55.003Z,-5.50
2022-12-17T19:05:21.657Z,-5.50
2022-12-17T19:07:48.265Z,-5.50
2022-12-17T19:10:14.822Z,-5.60
2022-12-17T19:12:41.348Z,-5.60
2022-12-17T19:15:08.254Z,-5.60
2022-12-17T19:17:34.813Z,-5.60
2022-12-17T19:20:01.344Z,-5.70
2022-12-17T19:22:27.862Z,-5.70
2022-12-17T19:24:54.455Z,-5.80
2022-12-17T19:27:21.000Z,-5.80
2022-12-17T19:29:49.611Z,-5.90
2022-12-17T19:32:16.587Z,-5.90
2022-12-17T19:34:43.155Z,-5.90
2022-12-17T19:37:09.852Z,-6.00
2022-12-17T19:39:36.394Z,-6.00
2022-12-17T19:42:02.945Z,-6.20
2022-12-17T19:44:29.753Z,-6.10
2022-12-17T19:46:58.239Z,-5.90
2022-12-17T19:49:24.776Z,-6.30
2022-12-17T19:51:51.318Z,-6.30
2022-12-17T19:54:18.073Z,-6.30
2022-12-17T19:56:45.249Z,-6.30
2022-12-17T19:59:12.582Z,-6.30
2022-12-17T20:01:40.518Z,-5.60
2022-12-17T20:04:07.201Z,-6.30
2022-12-17T20:06:34.425Z,-6.30
2022-12-17T20:09:01.808Z,-6.30
2022-12-17T20:11:34.285Z,-6.30
2022-12-17T20:14:06.060Z,-6.30
2022-12-17T20:16:34.497Z,-6.40
2022-12-17T20:19:02.104Z,-6.40
2022-12-17T20:21:28.815Z,-6.30
2022-12-17T20:23:55.360Z,-6.40
2022-12-17T20:26:21.943Z,-6.40
2022-12-17T20:28:48.490Z,-6.40
2022-12-17T20:31:15.208Z,-6.40
2022-12-17T20:33:42.043Z,-6.40
2022-12-17T20:36:10.524Z,-6.40
2022-12-17T20:38:38.062Z,-6.40
2022-12-17T20:41:14.962Z,-6.40
2022-12-17T20:43:41.690Z,-6.50
2022-12-17T20:46:12.066Z,-6.50
2022-12-17T20:48:39.951Z,-6.50
2022-12-17T20:51:07.396Z,-6.50
2022-12-17T20:53:34.940Z,-6.50
2022-12-17T20:56:06.432Z,-6.60
2022-12-17T20:58:33.350Z,-6.70
2022-12-17T21:01:04.579Z,-6.70
2022-12-17T21:03:32.385Z,-6.80
2022-12-17T21:06:08.953Z,-6.70
2022-12-17T21:08:36.161Z,-6.80
2022-12-17T21:11:02.964Z,-6.80
2022-12-17T21:13:29.548Z,-6.90
2022-12-17T21:15:57.457Z,-6.90
2022-12-17T21:18:24.097Z,-6.90
2022-12-17T21:21:02.449Z,-6.30
2022-12-17T21:23:29.424Z,-6.90
2022-12-17T21:25:58.934Z,-6.90
2022-12-17T21:28:26.589Z,-6.90
2022-12-17T21:30:53.409Z,-6.80
2022-12-17T21:33:20.237Z,-6.90
2022-12-17T21:35:47.235Z,-6.80
2022-12-17T21:38:14.426Z,-6.80
2022-12-17T21:40:41.536Z,-6.80
2022-12-17T21:43:08.152Z,-6.90
2022-12-17T21:45:36.778Z,-7.00
2022-12-17T21:48:04.203Z,-7.00
2022-12-17T21:50:41.869Z,-7.20
2022-12-17T21:53:10.037Z,-7.10
2022-12-17T21:55:36.595Z,-7.20
2022-12-17T21:58:03.866Z,-7.10
2022-12-17T22:00:30.678Z,-7.20
2022-12-17T22:02:57.280Z,-7.30
2022-12-17T22:05:24.014Z,-7.30
2022-12-17T22:07:51.634Z,-7.30
2022-12-17T22:10:38.387Z,-7.40
2022-12-17T22:13:24.801Z,-7.40
2022-12-17T22:15:51.360Z,-7.40
2022-12-17T22:18:17.928Z,-7.40
2022-12-17T22:20:44.578Z,-7.40
2022-12-17T22:23:11.154Z,-7.50
2022-12-17T22:25:39.138Z,-7.50
2022-12-17T22:28:06.471Z,-7.60
2022-12-17T22:30:51.569Z,-7.50
2022-12-17T22:33:45.679Z,-7.50
2022-12-17T22:38:45.903Z,-7.70
2022-12-17T22:43:25.588Z,-7.60
2022-12-17T22:44:36.241Z,-7.60
2022-12-17T22:44:53.515Z,-7.70
2022-12-17T22:47:21.405Z,-7.60
2022-12-17T22:49:47.985Z,-7.70
2022-12-17T22:52:14.673Z,-7.60
2022-12-17T22:54:44.037Z,-7.80
2022-12-17T22:57:35.376Z,-7.40
2022-12-17T22:59:57.591Z,-7.70
2022-12-17T23:02:24.261Z,-7.70
2022-12-17T23:04:50.796Z,-7.80
2022-12-17T23:07:17.365Z,-7.90
2022-12-17T23:09:43.936Z,-7.90
2022-12-17T23:12:29.313Z,-7.90
2022-12-17T23:14:55.827Z,-7.90
2022-12-17T23:17:22.372Z,-7.90
2022-12-17T23:19:49.066Z,-7.80
2022-12-17T23:22:21.773Z,-7.90
2022-12-17T23:24:48.814Z,-7.80
2022-12-17T23:27:15.347Z,-7.80
2022-12-17T23:29:41.900Z,-7.80
2022-12-17T23:32:08.820Z,-7.90
2022-12-17T23:34:35.352Z,-7.90
2022-12-17T23:37:01.943Z,-7.90
2022-12-17T23:39:28.514Z,-7.80
2022-12-17T23:41:55.124Z,-7.90
2022-12-17T23:44:21.686Z,-7.80
2022-12-17T23:46:48.320Z,-7.90
2022-12-17T23:49:14.980Z,-7.90
2022-12-17T23:51:41.796Z,-7.90
2022-12-17T23:54:08.384Z,-8.00
2022-12-17T23:56:36.551Z,-8.00
2022-12-17T23:59:03.501Z,-8.00
